Time;durP1;ratioP1;P1;durP2;ratioP2;P2;SDS_P1;SDS_P2;PMS_P1;PMS_P2;Temp;Humidity;BMP_temperature;BMP_pressure;BME280_temperature;BME280_humidity;BME280_pressure;Samples;Min_cycle;Max_cycle;Signal;HPM_P1;HPM_P2
2021/03/15 00:01:42;;;;;;;4.17;2.27;;;;;;;;;;5041926;28;20084;-84
2021/03/15 00:04:08;;;;;;;6.37;3.90;;;;;;;;;;5036782;28;20029;-84
2021/03/15 00:06:34;;;;;;;8.67;4.20;;;;;;;;;;5031374;28;20120;-81
2021/03/15 00:09:00;;;;;;;5.57;3.30;;;;;;;;;;5036586;28;20185;-81
2021/03/15 00:11:26;;;;;;;6.30;3.97;;;;;;;;;;5037882;28;20141;-81
2021/03/15 00:13:52;;;;;;;8.70;5.00;;;;;;;;;;5040460;28;20108;-81
2021/03/15 00:16:18;;;;;;;7.77;4.33;;;;;;;;;;5047740;28;20036;-81
2021/03/15 00:18:44;;;;;;;7.33;4.07;;;;;;;;;;5037937;28;20472;-81
2021/03/15 00:21:10;;;;;;;7.67;4.70;;;;;;;;;;5044196;28;20044;-81
2021/03/15 00:23:36;;;;;;;8.57;4.60;;;;;;;;;;5042766;28;20032;-79
2021/03/15 00:26:02;;;;;;;10.87;5.33;;;;;;;;;;5038069;28;20487;-81
2021/03/15 00:28:28;;;;;;;8.97;5.17;;;;;;;;;;5040090;28;20094;-80
2021/03/15 00:30:54;;;;;;;7.83;5.17;;;;;;;;;;5037900;28;20065;-82
2021/03/15 00:33:23;;;;;;;6.67;4.00;;;;;;;;;;5044997;28;20116;-82
2021/03/15 00:35:49;;;;;;;7.13;4.57;;;;;;;;;;5041120;28;20178;-81
2021/03/15 00:38:15;;;;;;;7.80;4.03;;;;;;;;;;5035856;28;20446;-81
2021/03/15 00:40:41;;;;;;;9.13;5.03;;;;;;;;;;5040192;28;20131;-82
2021/03/15 00:43:07;;;;;;;8.87;5.60;;;;;;;;;;5039836;28;20025;-82
2021/03/15 00:45:33;;;;;;;12.33;6.20;;;;;;;;;;5049179;28;20067;-80
2021/03/15 00:47:59;;;;;;;6.67;4.10;;;;;;;;;;5052009;28;20051;-81
2021/03/15 00:50:28;;;;;;;6.93;3.97;;;;;;;;;;5048211;28;20499;-80
2021/03/15 00:52:54;;;;;;;9.27;5.80;;;;;;;;;;5045696;28;20025;-81
2021/03/15 00:55:20;;;;;;;12.67;5.60;;;;;;;;;;5041542;28;20030;-81
2021/03/15 00:57:47;;;;;;;8.97;5.87;;;;;;;;;;5037255;28;20033;-82
2021/03/15 01:00:14;;;;;;;10.47;5.83;;;;;;;;;;5040895;28;20040;-82
2021/03/15 01:02:40;;;;;;;10.37;5.93;;;;;;;;;;5047538;28;20029;-82
2021/03/15 01:05:07;;;;;;;11.47;6.53;;;;;;;;;;5039071;28;20083;-81
2021/03/15 01:07:33;;;;;;;10.93;6.27;;;;;;;;;;5045750;28;20068;-82
2021/03/15 01:09:59;;;;;;;10.30;6.57;;;;;;;;;;5045047;28;20061;-82
2021/03/15 01:12:25;;;;;;;10.67;6.57;;;;;;;;;;5052032;28;20457;-80
2021/03/15 01:14:50;;;;;;;11.97;6.60;;;;;;;;;;5062324;28;20044;-81
2021/03/15 01:17:17;;;;;;;10.40;5.23;;;;;;;;;;5051202;28;20020;-81
2021/03/15 01:19:43;;;;;;;10.33;5.77;;;;;;;;;;5045457;28;20033;-82
2021/03/15 01:22:09;;;;;;;8.93;6.23;;;;;;;;;;5044140;28;20036;-81
2021/03/15 01:24:35;;;;;;;12.27;6.30;;;;;;;;;;5051241;28;20111;-81
2021/03/15 01:27:01;;;;;;;10.40;6.00;;;;;;;;;;5035094;28;20029;-83
2021/03/15 01:29:27;;;;;;;10.37;6.27;;;;;;;;;;5045669;28;20040;-80
2021/03/15 01:31:53;;;;;;;11.57;5.37;;;;;;;;;;5048698;28;20774;-80
2021/03/15 01:34:19;;;;;;;10.73;5.93;;;;;;;;;;5043233;28;20044;-82
2021/03/15 01:36:45;;;;;;;10.17;5.57;;;;;;;;;;5040354;28;20041;-82
2021/03/15 01:39:11;;;;;;;11.53;6.47;;;;;;;;;;5040228;28;20026;-82
2021/03/15 01:41:37;;;;;;;9.67;5.10;;;;;;;;;;5045553;28;20396;-82
2021/03/15 01:44:03;;;;;;;7.83;4.30;;;;;;;;;;5041315;28;20064;-82
2021/03/15 01:46:29;;;;;;;8.70;5.77;;;;;;;;;;5040602;28;20025;-82
2021/03/15 01:48:55;;;;;;;11.20;5.87;;;;;;;;;;5043605;28;20037;-80
2021/03/15 01:51:21;;;;;;;7.80;5.03;;;;;;;;;;5050698;28;20472;-81
2021/03/15 01:53:47;;;;;;;7.73;4.10;;;;;;;;;;5040408;28;20033;-82
2021/03/15 01:56:14;;;;;;;10.47;5.70;;;;;;;;;;5046165;28;20028;-82
2021/03/15 01:58:40;;;;;;;11.23;6.57;;;;;;;;;;5044445;28;20436;-82
2021/03/15 02:01:06;;;;;;;9.97;4.50;;;;;;;;;;5042676;28;20036;-81
2021/03/15 02:03:32;;;;;;;9.63;5.03;;;;;;;;;;5042887;28;20028;-81
2021/03/15 02:05:58;;;;;;;9.23;5.57;;;;;;;;;;5039291;28;20076;-80
2021/03/15 02:08:24;;;;;;;8.67;5.93;;;;;;;;;;5047350;28;20382;-83
2021/03/15 02:10:50;;;;;;;11.13;5.77;;;;;;;;;;5044630;28;20045;-81
2021/03/15 02:13:21;;;;;;;11.33;5.97;;;;;;;;;;5043498;28;20025;-81
2021/03/15 02:15:53;;;;;;;9.77;5.80;;;;;;;;;;5040712;28;20036;-81
2021/03/15 02:18:40;;;;;;;7.97;4.40;;;;;;;;;;5043537;28;20036;-81
2021/03/15 02:21:18;;;;;;;10.23;5.57;;;;;;;;;;5035397;28;20147;-81
2021/03/15 02:23:51;;;;;;;12.03;6.17;;;;;;;;;;5046717;28;20484;-83
2021/03/15 02:26:17;;;;;;;13.53;6.43;;;;;;;;;;5047383;28;20033;-82
2021/03/15 02:29:03;;;;;;;10.63;5.73;;;;;;;;;;5040813;28;20480;-81
2021/03/15 02:31:38;;;;;;;6.97;3.73;;;;;;;;;;5050440;28;20100;-82
2021/03/15 02:34:16;;;;;;;10.10;5.97;;;;;;;;;;5042086;28;20029;-82
2021/03/15 02:36:42;;;;;;;10.23;5.63;;;;;;;;;;5039976;28;20025;-82
2021/03/15 02:39:28;;;;;;;10.50;6.53;;;;;;;;;;5042811;28;20440;-81
2021/03/15 02:41:57;;;;;;;7.20;4.07;;;;;;;;;;5047610;28;20040;-82
2021/03/15 02:44:23;;;;;;;9.50;5.18;;;;;;;;;;5036882;28;20026;-82
2021/03/15 02:46:50;;;;;;;9.53;4.70;;;;;;;;;;5039419;28;20401;-81
2021/03/15 02:49:17;;;;;;;7.67;4.30;;;;;;;;;;5047782;28;20040;-81
2021/03/15 02:51:44;;;;;;;6.93;3.67;;;;;;;;;;5037219;28;20424;-81
2021/03/15 02:54:11;;;;;;;10.63;5.33;;;;;;;;;;5052692;28;20041;-82
2021/03/15 02:56:42;;;;;;;8.80;4.43;;;;;;;;;;5053413;28;20033;-81
2021/03/15 02:59:09;;;;;;;10.93;5.77;;;;;;;;;;5051617;28;20112;-81
2021/03/15 03:01:37;;;;;;;10.87;4.87;;;;;;;;;;5035105;28;20044;-82
2021/03/15 03:04:03;;;;;;;13.73;6.07;;;;;;;;;;5043716;28;20103;-81
2021/03/15 03:06:30;;;;;;;7.23;4.10;;;;;;;;;;5040681;28;20033;-82
2021/03/15 03:08:57;;;;;;;7.70;4.33;;;;;;;;;;5042601;28;20029;-81
2021/03/15 03:11:26;;;;;;;9.87;5.70;;;;;;;;;;5038739;28;20662;-82
2021/03/15 03:13:53;;;;;;;16.13;5.75;;;;;;;;;;5047031;28;20432;-82
2021/03/15 03:16:20;;;;;;;10.97;6.13;;;;;;;;;;5047454;28;20029;-82
2021/03/15 03:18:46;;;;;;;9.70;4.43;;;;;;;;;;5047912;28;20438;-80
2021/03/15 03:21:13;;;;;;;8.07;4.30;;;;;;;;;;5045713;28;20069;-82
2021/03/15 03:23:40;;;;;;;10.67;5.90;;;;;;;;;;5042887;28;20038;-82
2021/03/15 03:26:07;;;;;;;7.53;3.77;;;;;;;;;;5041476;28;20029;-82
2021/03/15 03:28:34;;;;;;;9.17;4.80;;;;;;;;;;5044026;28;20101;-82
2021/03/15 03:31:01;;;;;;;7.53;5.00;;;;;;;;;;5040375;28;20033;-83
2021/03/15 03:33:27;;;;;;;7.80;4.93;;;;;;;;;;5039674;28;20103;-83
2021/03/15 03:35:53;;;;;;;9.73;4.50;;;;;;;;;;5043423;28;20080;-82
2021/03/15 03:38:19;;;;;;;9.53;4.90;;;;;;;;;;5042643;28;20507;-82
2021/03/15 03:40:45;;;;;;;9.87;5.00;;;;;;;;;;5036568;28;20044;-80
2021/03/15 03:43:11;;;;;;;8.13;3.90;;;;;;;;;;5036980;28;20021;-80
2021/03/15 03:45:37;;;;;;;5.33;2.57;;;;;;;;;;5043125;28;21884;-81
2021/03/15 03:48:04;;;;;;;8.67;4.73;;;;;;;;;;5039696;28;20469;-81
2021/03/15 03:50:31;;;;;;;8.17;4.67;;;;;;;;;;5042694;28;20037;-82
2021/03/15 03:53:00;;;;;;;7.30;4.40;;;;;;;;;;5041012;28;20052;-81
2021/03/15 03:55:28;;;;;;;9.65;5.25;;;;;;;;;;5042263;28;20041;-81
2021/03/15 03:57:56;;;;;;;8.13;4.50;;;;;;;;;;5037198;28;20033;-81
2021/03/15 04:00:22;;;;;;;8.70;4.50;;;;;;;;;;5051214;28;20053;-81
2021/03/15 04:02:52;;;;;;;9.07;4.80;;;;;;;;;;5045928;28;20095;-81
2021/03/15 04:05:20;;;;;;;9.25;4.63;;;;;;;;;;5039095;28;20391;-82
2021/03/15 04:07:48;;;;;;;8.43;4.83;;;;;;;;;;5037772;28;20057;-82
2021/03/15 04:10:14;;;;;;;10.57;5.27;;;;;;;;;;5048274;28;20116;-81
2021/03/15 04:12:53;;;;;;;7.87;3.87;;;;;;;;;;5040006;28;20415;-83
2021/03/15 04:15:19;;;;;;;13.57;6.53;;;;;;;;;;5044205;28;20040;-81
2021/03/15 04:17:46;;;;;;;8.77;4.97;;;;;;;;;;5038027;28;20037;-81
2021/03/15 04:20:17;;;;;;;7.20;4.03;;;;;;;;;;5036056;28;20080;-81
2021/03/15 04:22:48;;;;;;;7.07;2.83;;;;;;;;;;5046955;28;20471;-80
2021/03/15 04:25:14;;;;;;;10.20;5.93;;;;;;;;;;5045721;28;20477;-81
2021/03/15 04:27:43;;;;;;;11.13;5.47;;;;;;;;;;5047737;28;20603;-81
2021/03/15 04:30:10;;;;;;;10.03;5.67;;;;;;;;;;5046046;28;20033;-81
2021/03/15 04:32:36;;;;;;;5.83;3.27;;;;;;;;;;5041759;28;20032;-81
2021/03/15 04:35:03;;;;;;;8.77;5.47;;;;;;;;;;5041794;28;20053;-82
2021/03/15 04:37:29;;;;;;;7.87;4.37;;;;;;;;;;5043196;28;20021;-80
2021/03/15 04:39:56;;;;;;;9.43;5.10;;;;;;;;;;5038601;28;20599;-81
2021/03/15 04:42:22;;;;;;;7.20;3.80;;;;;;;;;;5044053;28;20045;-82
2021/03/15 04:44:48;;;;;;;9.07;4.53;;;;;;;;;;5038657;28;20029;-83
2021/03/15 04:47:15;;;;;;;7.87;4.30;;;;;;;;;;5046372;28;20035;-81
2021/03/15 04:49:41;;;;;;;10.60;4.70;;;;;;;;;;5044962;28;20024;-83
2021/03/15 04:52:08;;;;;;;9.43;5.30;;;;;;;;;;5044475;28;20039;-82
2021/03/15 04:54:34;;;;;;;9.03;4.70;;;;;;;;;;5048793;28;20029;-83
2021/03/15 04:57:01;;;;;;;8.17;4.63;;;;;;;;;;5043189;28;20060;-81
2021/03/15 04:59:28;;;;;;;9.03;4.90;;;;;;;;;;5042579;28;20043;-82
2021/03/15 05:01:55;;;;;;;9.13;4.63;;;;;;;;;;5043581;28;20377;-81
2021/03/15 05:04:23;;;;;;;7.77;4.43;;;;;;;;;;5049636;28;20087;-81
2021/03/15 05:06:49;;;;;;;9.50;4.90;;;;;;;;;;5053129;28;20037;-81
2021/03/15 05:09:16;;;;;;;9.77;3.90;;;;;;;;;;5046926;28;20082;-83
2021/03/15 05:11:42;;;;;;;7.77;3.77;;;;;;;;;;5050779;28;20036;-83
2021/03/15 05:14:11;;;;;;;6.73;3.37;;;;;;;;;;5038696;28;20040;-83
2021/03/15 05:16:38;;;;;;;9.73;4.70;;;;;;;;;;5045683;28;20025;-84
2021/03/15 05:19:06;;;;;;;8.53;4.80;;;;;;;;;;5045563;28;20025;-83
2021/03/15 05:21:34;;;;;;;9.90;5.60;;;;;;;;;;5048557;28;20037;-83
2021/03/15 05:24:01;;;;;;;7.43;4.03;;;;;;;;;;5051584;28;20040;-83
2021/03/15 05:26:28;;;;;;;10.37;4.53;;;;;;;;;;5047361;28;20484;-83
2021/03/15 05:28:54;;;;;;;11.10;5.00;;;;;;;;;;5051082;28;20051;-84
2021/03/15 05:31:21;;;;;;;7.97;4.00;;;;;;;;;;5049372;28;20052;-82
2021/03/15 05:33:48;;;;;;;8.00;4.60;;;;;;;;;;5052998;28;20033;-83
2021/03/15 05:36:16;;;;;;;9.80;5.10;;;;;;;;;;5042781;28;20081;-83
2021/03/15 05:38:43;;;;;;;6.67;4.33;;;;;;;;;;5044226;28;20097;-83
2021/03/15 05:41:14;;;;;;;10.93;6.30;;;;;;;;;;5045785;28;20098;-82
2021/03/15 05:43:43;;;;;;;7.70;4.27;;;;;;;;;;5050376;28;20453;-80
2021/03/15 05:46:27;;;;;;;7.77;4.30;;;;;;;;;;5049974;28;20026;-82
2021/03/15 05:48:56;;;;;;;8.17;4.30;;;;;;;;;;5047606;28;20040;-81
2021/03/15 05:51:41;;;;;;;7.63;4.82;;;;;;;;;;5044853;28;20039;-75
2021/03/15 05:54:07;;;;;;;6.43;4.07;;;;;;;;;;5048308;28;20068;-79
2021/03/15 05:57:11;;;;;;;8.10;4.13;;;;;;;;;;5046058;28;20119;-88
2021/03/15 05:59:55;;;;;;;8.43;3.97;;;;;;;;;;5002096;28;20034;-89
2021/03/15 06:02:34;;;;;;;7.20;4.47;;;;;;;;;;5005764;28;20704;-87
2021/03/15 06:05:19;;;;;;;8.10;4.40;;;;;;;;;;5015972;28;20071;-85
2021/03/15 06:07:47;;;;;;;6.33;4.03;;;;;;;;;;5007554;28;20030;-78
2021/03/15 06:10:19;;;;;;;7.00;3.83;;;;;;;;;;5015601;28;20088;-78
2021/03/15 06:12:51;;;;;;;9.80;4.40;;;;;;;;;;5025354;28;20026;-81
2021/03/15 06:15:19;;;;;;;6.20;3.47;;;;;;;;;;5014694;28;20508;-79
2021/03/15 06:17:45;;;;;;;7.33;3.50;;;;;;;;;;5015690;28;20061;-82
2021/03/15 06:20:13;;;;;;;7.20;3.63;;;;;;;;;;5003877;28;20068;-83
2021/03/15 06:22:39;;;;;;;5.90;3.00;;;;;;;;;;5021576;28;20049;-77
2021/03/15 06:25:05;;;;;;;7.50;4.37;;;;;;;;;;5021402;28;20065;-85
2021/03/15 06:27:32;;;;;;;7.53;3.70;;;;;;;;;;5017982;28;20032;-80
2021/03/15 06:29:58;;;;;;;7.10;3.67;;;;;;;;;;5023741;28;20100;-76
2021/03/15 06:32:26;;;;;;;6.57;3.55;;;;;;;;;;5038768;28;20049;-76
2021/03/15 06:34:53;;;;;;;7.13;3.20;;;;;;;;;;5043672;28;20140;-77
2021/03/15 06:37:19;;;;;;;6.80;3.60;;;;;;;;;;5030155;28;20025;-78
2021/03/15 06:39:46;;;;;;;8.70;3.77;;;;;;;;;;5041017;28;20558;-78
2021/03/15 06:42:16;;;;;;;8.47;4.30;;;;;;;;;;5047842;28;20052;-77
2021/03/15 06:44:42;;;;;;;6.87;3.30;;;;;;;;;;5046693;28;20544;-77
2021/03/15 06:47:09;;;;;;;8.53;2.90;;;;;;;;;;5035938;28;20142;-80
2021/03/15 06:49:35;;;;;;;6.33;3.30;;;;;;;;;;5029996;28;20021;-76
2021/03/15 06:52:05;;;;;;;5.33;3.50;;;;;;;;;;5041586;28;20033;-79
2021/03/15 06:54:31;;;;;;;5.67;3.07;;;;;;;;;;5036591;28;20029;-77
2021/03/15 06:57:17;;;;;;;6.25;3.30;;;;;;;;;;5043237;28;20158;-79
2021/03/15 06:59:45;;;;;;;6.72;2.92;;;;;;;;;;5040409;28;20090;-79
2021/03/15 07:02:11;;;;;;;6.13;3.13;;;;;;;;;;5034726;28;20048;-80
2021/03/15 07:04:37;;;;;;;4.30;2.70;;;;;;;;;;5048750;28;20054;-79
2021/03/15 07:07:04;;;;;;;6.80;3.20;;;;;;;;;;5043222;28;20428;-80
2021/03/15 07:09:33;;;;;;;5.40;3.00;;;;;;;;;;5046326;28;20043;-77
2021/03/15 07:12:03;;;;;;;5.63;3.10;;;;;;;;;;5039114;28;20034;-79
2021/03/15 07:14:29;;;;;;;4.78;2.20;;;;;;;;;;5044770;28;20033;-79
2021/03/15 07:17:02;;;;;;;3.67;2.40;;;;;;;;;;5053000;28;20044;-80
2021/03/15 07:19:28;;;;;;;5.57;2.83;;;;;;;;;;5039812;28;20033;-77
2021/03/15 07:21:54;;;;;;;4.25;2.78;;;;;;;;;;5038519;28;20037;-80
2021/03/15 07:24:20;;;;;;;4.82;2.72;;;;;;;;;;5045198;28;20022;-79
2021/03/15 07:26:46;;;;;;;6.28;2.85;;;;;;;;;;5042812;28;20043;-77
2021/03/15 07:29:16;;;;;;;5.07;2.30;;;;;;;;;;5046287;28;20031;-80
2021/03/15 07:31:46;;;;;;;7.17;2.70;;;;;;;;;;5043833;28;20033;-78
2021/03/15 07:34:15;;;;;;;8.05;3.20;;;;;;;;;;5035721;28;20018;-79
2021/03/15 07:36:58;;;;;;;7.57;2.83;;;;;;;;;;5039973;28;20532;-79
2021/03/15 07:39:25;;;;;;;7.17;2.97;;;;;;;;;;5048801;28;20051;-79
2021/03/15 07:41:52;;;;;;;3.53;1.83;;;;;;;;;;5046956;28;20187;-79
2021/03/15 07:44:31;;;;;;;5.73;2.50;;;;;;;;;;5042902;28;20026;-78
2021/03/15 07:46:58;;;;;;;2.63;1.58;;;;;;;;;;5046147;28;20037;-79
2021/03/15 07:49:27;;;;;;;5.77;2.20;;;;;;;;;;5042435;28;20859;-79
2021/03/15 07:51:54;;;;;;;2.47;1.25;;;;;;;;;;5043321;28;20044;-79
2021/03/15 07:54:24;;;;;;;3.60;2.00;;;;;;;;;;5040926;28;20067;-78
2021/03/15 07:57:10;;;;;;;4.43;1.52;;;;;;;;;;5036683;28;20104;-79
2021/03/15 07:59:37;;;;;;;4.43;2.10;;;;;;;;;;5042018;28;20085;-79
2021/03/15 08:02:04;;;;;;;6.13;2.30;;;;;;;;;;5041645;28;20041;-79
2021/03/15 08:04:30;;;;;;;3.47;1.15;;;;;;;;;;5045767;28;20037;-80
2021/03/15 08:06:56;;;;;;;2.13;1.00;;;;;;;;;;5034578;28;20029;-78
2021/03/15 08:09:22;;;;;;;4.97;2.20;;;;;;;;;;5042225;28;20033;-78
2021/03/15 08:11:50;;;;;;;3.73;1.87;;;;;;;;;;5042858;28;20029;-79
2021/03/15 08:14:16;;;;;;;5.00;2.20;;;;;;;;;;5038743;28;20053;-79
2021/03/15 08:16:43;;;;;;;4.03;2.15;;;;;;;;;;5036685;28;20473;-79
2021/03/15 08:19:10;;;;;;;3.70;1.75;;;;;;;;;;5038442;28;20037;-79
2021/03/15 08:21:37;;;;;;;4.73;2.50;;;;;;;;;;5039543;28;20045;-86
2021/03/15 08:24:04;;;;;;;6.30;2.67;;;;;;;;;;5043325;28;20052;-83
2021/03/15 08:26:30;;;;;;;4.57;2.63;;;;;;;;;;5039691;28;20059;-84
2021/03/15 08:28:58;;;;;;;4.20;2.38;;;;;;;;;;5042539;28;20857;-86
2021/03/15 08:31:26;;;;;;;5.05;2.35;;;;;;;;;;5042892;28;20100;-84
2021/03/15 08:33:52;;;;;;;7.53;2.33;;;;;;;;;;5033891;28;20029;-84
2021/03/15 08:36:18;;;;;;;6.00;2.63;;;;;;;;;;5046368;28;20048;-83
2021/03/15 08:38:44;;;;;;;4.95;2.10;;;;;;;;;;5048672;28;20033;-83
2021/03/15 08:41:11;;;;;;;4.38;1.75;;;;;;;;;;5044160;28;20468;-84
2021/03/15 08:43:41;;;;;;;5.07;2.30;;;;;;;;;;5040170;28;20477;-85
2021/03/15 08:46:34;;;;;;;5.90;2.33;;;;;;;;;;5044538;28;20372;-86
2021/03/15 08:49:03;;;;;;;3.97;1.52;;;;;;;;;;5052907;28;20057;-83
2021/03/15 08:51:35;;;;;;;4.75;1.90;;;;;;;;;;5036411;28;20029;-85
2021/03/15 08:54:08;;;;;;;5.18;2.10;;;;;;;;;;5043207;28;20116;-85
2021/03/15 08:56:34;;;;;;;5.47;2.50;;;;;;;;;;5046803;28;20029;-85
2021/03/15 08:59:01;;;;;;;3.72;2.05;;;;;;;;;;5053133;28;20045;-85
2021/03/15 09:01:28;;;;;;;7.18;2.53;;;;;;;;;;5057039;28;20044;-85
2021/03/15 09:03:54;;;;;;;2.88;1.58;;;;;;;;;;5052124;28;20041;-83
2021/03/15 09:06:50;;;;;;;5.57;2.25;;;;;;;;;;5053972;28;20556;-84
2021/03/15 09:09:19;;;;;;;3.63;2.20;;;;;;;;;;5042277;28;20079;-85
2021/03/15 09:11:46;;;;;;;4.45;2.10;;;;;;;;;;5047587;28;20444;-84
2021/03/15 09:14:15;;;;;;;4.70;2.03;;;;;;;;;;5040219;28;20033;-83
2021/03/15 09:16:45;;;;;;;3.22;1.83;;;;;;;;;;5045371;28;20025;-82
2021/03/15 09:19:21;;;;;;;3.90;1.75;;;;;;;;;;5051644;28;20064;-82
2021/03/15 09:22:00;;;;;;;3.05;1.50;;;;;;;;;;5045879;28;20041;-82
2021/03/15 09:24:53;;;;;;;2.90;1.60;;;;;;;;;;5063378;28;20111;-82
2021/03/15 09:27:25;;;;;;;1.70;1.38;;;;;;;;;;5054047;28;20036;-82
2021/03/15 09:29:58;;;;;;;3.20;1.98;;;;;;;;;;5046601;28;20104;-83
2021/03/15 09:32:35;;;;;;;3.13;1.40;;;;;;;;;;5054470;28;20025;-82
2021/03/15 09:35:27;;;;;;;2.38;1.60;;;;;;;;;;5048292;28;20057;-82
2021/03/15 09:37:57;;;;;;;5.82;1.73;;;;;;;;;;5042967;28;20130;-82
2021/03/15 09:40:25;;;;;;;1.90;1.10;;;;;;;;;;5043204;28;20025;-83
2021/03/15 09:42:51;;;;;;;2.42;1.45;;;;;;;;;;5048605;28;20039;-82
2021/03/15 09:45:32;;;;;;;3.17;1.50;;;;;;;;;;5044902;28;20051;-84
2021/03/15 09:47:59;;;;;;;2.55;1.30;;;;;;;;;;5051148;28;20025;-84
2021/03/15 09:50:26;;;;;;;1.88;1.02;;;;;;;;;;5040631;28;20041;-85
2021/03/15 09:52:52;;;;;;;2.17;1.55;;;;;;;;;;5031822;28;20018;-86
2021/03/15 09:55:19;;;;;;;6.30;2.65;;;;;;;;;;5054081;28;20033;-84
2021/03/15 09:57:45;;;;;;;2.83;1.70;;;;;;;;;;5046776;28;20078;-83
2021/03/15 10:00:13;;;;;;;1.85;1.15;;;;;;;;;;5041467;28;20090;-84
2021/03/15 10:02:39;;;;;;;2.85;1.48;;;;;;;;;;5045216;28;20075;-84
2021/03/15 10:05:06;;;;;;;0.93;0.55;;;;;;;;;;5047379;28;20021;-84
2021/03/15 10:07:34;;;;;;;2.97;1.00;;;;;;;;;;5041999;28;20021;-84
2021/03/15 10:10:08;;;;;;;1.60;0.80;;;;;;;;;;5046199;28;20074;-82
2021/03/15 10:12:34;;;;;;;3.88;1.15;;;;;;;;;;5039239;28;20034;-83
2021/03/15 10:15:01;;;;;;;1.48;1.13;;;;;;;;;;5032758;28;20087;-84
2021/03/15 10:17:27;;;;;;;0.95;0.70;;;;;;;;;;5043560;28;20419;-83
2021/03/15 10:19:53;;;;;;;1.10;0.60;;;;;;;;;;5044558;28;20036;-84
2021/03/15 10:22:20;;;;;;;2.05;1.00;;;;;;;;;;5043197;28;20037;-84
2021/03/15 10:24:47;;;;;;;1.20;1.00;;;;;;;;;;5032175;28;20116;-85
2021/03/15 10:27:23;;;;;;;1.47;0.70;;;;;;;;;;5052798;28;20654;-82
2021/03/15 10:29:53;;;;;;;1.63;0.90;;;;;;;;;;5060930;28;20026;-83
2021/03/15 10:32:21;;;;;;;2.30;0.85;;;;;;;;;;5053601;28;20025;-83
2021/03/15 10:34:54;;;;;;;1.42;0.80;;;;;;;;;;5044228;28;20037;-82
2021/03/15 10:37:21;;;;;;;1.65;0.90;;;;;;;;;;5033654;28;20076;-83
2021/03/15 10:39:48;;;;;;;1.50;0.80;;;;;;;;;;5030670;28;20029;-82
2021/03/15 10:42:14;;;;;;;2.20;0.85;;;;;;;;;;5031151;28;20043;-84
2021/03/15 10:44:40;;;;;;;0.95;0.63;;;;;;;;;;5040224;28;20029;-81
2021/03/15 10:47:08;;;;;;;1.80;0.90;;;;;;;;;;5038268;28;20142;-85
2021/03/15 10:49:34;;;;;;;2.35;1.10;;;;;;;;;;5041273;28;20392;-82
2021/03/15 10:52:00;;;;;;;1.63;0.70;;;;;;;;;;5037044;28;20089;-83
2021/03/15 10:54:27;;;;;;;2.00;0.90;;;;;;;;;;5037703;28;20037;-84
2021/03/15 10:57:09;;;;;;;1.65;0.80;;;;;;;;;;5044070;28;20087;-83
2021/03/15 10:59:35;;;;;;;1.65;0.68;;;;;;;;;;5035313;28;20387;-81
2021/03/15 11:02:01;;;;;;;4.57;0.90;;;;;;;;;;5036547;28;20124;-83
2021/03/15 11:04:37;;;;;;;1.00;0.85;;;;;;;;;;5034724;28;20024;-83
2021/03/15 11:07:22;;;;;;;0.68;0.60;;;;;;;;;;5038322;28;20029;-82
2021/03/15 11:09:54;;;;;;;1.00;0.75;;;;;;;;;;5045955;28;20033;-83
2021/03/15 11:12:34;;;;;;;0.98;0.63;;;;;;;;;;5044725;28;20030;-83
2021/03/15 11:15:06;;;;;;;0.95;0.70;;;;;;;;;;5031716;28;20069;-84
2021/03/15 11:17:32;;;;;;;1.13;0.70;;;;;;;;;;5039340;28;20065;-83
2021/03/15 11:19:58;;;;;;;1.60;0.90;;;;;;;;;;5043184;28;20071;-84
2021/03/15 11:22:24;;;;;;;1.00;0.75;;;;;;;;;;5049469;28;20048;-84
2021/03/15 11:25:05;;;;;;;2.87;0.83;;;;;;;;;;5047184;28;20038;-83
2021/03/15 11:27:35;;;;;;;0.63;0.60;;;;;;;;;;5039191;28;20042;-81
2021/03/15 11:30:01;;;;;;;0.68;0.50;;;;;;;;;;5042426;28;20036;-82
2021/03/15 11:32:28;;;;;;;1.43;0.70;;;;;;;;;;5045344;28;20018;-82
2021/03/15 11:34:54;;;;;;;1.40;0.83;;;;;;;;;;5048345;28;20045;-83
2021/03/15 11:37:27;;;;;;;0.85;0.52;;;;;;;;;;5064328;28;20040;-81
2021/03/15 11:39:53;;;;;;;1.13;0.73;;;;;;;;;;5049967;28;20044;-81
2021/03/15 11:42:30;;;;;;;0.30;0.25;;;;;;;;;;5035005;28;20508;-82
2021/03/15 11:44:56;;;;;;;1.08;0.80;;;;;;;;;;5043991;28;20037;-81
2021/03/15 11:47:22;;;;;;;1.20;0.80;;;;;;;;;;5046151;28;20040;-83
2021/03/15 11:49:48;;;;;;;4.73;0.53;;;;;;;;;;5034610;28;20032;-84
2021/03/15 11:52:27;;;;;;;0.60;0.30;;;;;;;;;;5041025;28;20135;-83
2021/03/15 11:54:54;;;;;;;0.40;0.40;;;;;;;;;;5047005;28;20103;-84
2021/03/15 11:57:20;;;;;;;3.00;0.50;;;;;;;;;;5036777;28;20583;-83
2021/03/15 11:59:46;;;;;;;1.77;0.90;;;;;;;;;;5047729;28;20049;-81
2021/03/15 12:02:12;;;;;;;0.90;0.60;;;;;;;;;;5038158;28;20496;-84
2021/03/15 12:04:38;;;;;;;1.80;0.80;;;;;;;;;;5040401;28;20026;-84
2021/03/15 12:07:04;;;;;;;0.93;0.63;;;;;;;;;;5045469;28;20477;-85
2021/03/15 12:09:30;;;;;;;1.08;0.75;;;;;;;;;;5039354;28;20029;-83
2021/03/15 12:11:56;;;;;;;2.53;0.50;;;;;;;;;;5044475;28;20539;-83
2021/03/15 12:14:22;;;;;;;1.00;0.90;;;;;;;;;;5033875;28;20120;-81
2021/03/15 12:16:48;;;;;;;1.05;0.70;;;;;;;;;;5034893;28;20030;-83
2021/03/15 12:19:15;;;;;;;1.40;0.90;;;;;;;;;;5041049;28;20043;-83
2021/03/15 12:21:41;;;;;;;0.55;0.52;;;;;;;;;;5035700;28;20067;-83
2021/03/15 12:24:07;;;;;;;1.83;0.90;;;;;;;;;;5042256;28;20028;-84
2021/03/15 12:26:35;;;;;;;1.00;0.50;;;;;;;;;;5038076;28;20136;-83
2021/03/15 12:29:01;;;;;;;0.80;0.80;;;;;;;;;;5037274;28;20049;-83
2021/03/15 12:31:27;;;;;;;1.10;0.90;;;;;;;;;;5034998;28;20295;-82
2021/03/15 12:33:53;;;;;;;1.70;0.90;;;;;;;;;;5047686;28;20030;-83
2021/03/15 12:36:19;;;;;;;1.67;0.80;;;;;;;;;;5038176;28;20038;-82
2021/03/15 12:38:45;;;;;;;1.05;0.90;;;;;;;;;;5061567;28;20047;-83
2021/03/15 12:41:11;;;;;;;0.82;0.68;;;;;;;;;;5047202;28;20049;-83
2021/03/15 12:43:37;;;;;;;0.90;0.80;;;;;;;;;;5038616;28;20032;-82
2021/03/15 12:46:03;;;;;;;0.88;0.77;;;;;;;;;;5045594;28;20033;-82
2021/03/15 12:48:29;;;;;;;0.80;0.70;;;;;;;;;;5042323;28;20048;-82
2021/03/15 12:50:55;;;;;;;1.48;1.00;;;;;;;;;;5043080;28;20025;-82
2021/03/15 12:53:21;;;;;;;1.10;0.90;;;;;;;;;;5044614;28;20032;-83
2021/03/15 12:55:47;;;;;;;0.88;0.70;;;;;;;;;;5036503;28;20086;-83
2021/03/15 12:58:15;;;;;;;1.63;1.13;;;;;;;;;;5044070;28;20022;-78
2021/03/15 13:00:41;;;;;;;1.88;1.10;;;;;;;;;;5042093;28;20541;-82
2021/03/15 13:03:07;;;;;;;1.27;0.77;;;;;;;;;;5041534;28;20116;-90
2021/03/15 13:05:33;;;;;;;2.55;2.20;;;;;;;;;;5042365;28;20029;-85
2021/03/15 13:07:59;;;;;;;1.20;1.10;;;;;;;;;;5048146;28;20026;-86
2021/03/15 13:10:25;;;;;;;1.90;1.13;;;;;;;;;;5046077;28;20033;-82
2021/03/15 13:12:51;;;;;;;3.35;1.08;;;;;;;;;;5037879;28;20033;-82
2021/03/15 13:15:17;;;;;;;1.58;1.00;;;;;;;;;;5040962;28;20020;-82
2021/03/15 13:17:44;;;;;;;2.22;1.38;;;;;;;;;;5041185;28;20025;-88
2021/03/15 13:20:10;;;;;;;1.40;0.82;;;;;;;;;;5044493;28;20029;-85
2021/03/15 13:22:36;;;;;;;1.73;1.10;;;;;;;;;;5044526;28;20090;-84
2021/03/15 13:25:03;;;;;;;2.40;1.00;;;;;;;;;;5034628;28;20033;-84
2021/03/15 13:27:29;;;;;;;4.40;1.55;;;;;;;;;;5041039;28;20045;-84
2021/03/15 13:29:55;;;;;;;2.83;1.42;;;;;;;;;;5049182;28;20021;-84
2021/03/15 13:32:21;;;;;;;2.92;1.40;;;;;;;;;;5048600;28;20025;-81
2021/03/15 13:34:47;;;;;;;4.07;1.50;;;;;;;;;;5041031;28;20144;-84
2021/03/15 13:37:13;;;;;;;2.83;1.50;;;;;;;;;;5044978;28;20052;-83
2021/03/15 13:39:39;;;;;;;1.98;1.30;;;;;;;;;;5051802;28;20026;-83
2021/03/15 13:42:05;;;;;;;1.88;1.20;;;;;;;;;;5062351;28;20029;-84
2021/03/15 13:44:31;;;;;;;2.58;1.80;;;;;;;;;;5064241;28;20033;-81
2021/03/15 13:46:57;;;;;;;2.00;1.33;;;;;;;;;;5043750;28;20037;-84
2021/03/15 13:49:23;;;;;;;2.15;1.10;;;;;;;;;;5050186;28;20021;-84
2021/03/15 13:51:49;;;;;;;2.70;1.33;;;;;;;;;;5044357;28;20063;-81
2021/03/15 13:54:15;;;;;;;1.55;1.20;;;;;;;;;;5041086;28;20393;-82
2021/03/15 13:56:41;;;;;;;1.13;0.90;;;;;;;;;;5040348;28;20029;-81
2021/03/15 13:59:07;;;;;;;2.08;1.35;;;;;;;;;;5038197;28;20037;-81
2021/03/15 14:01:33;;;;;;;1.30;0.98;;;;;;;;;;5045672;28;20029;-81
2021/03/15 14:03:59;;;;;;;0.88;0.77;;;;;;;;;;5047713;28;20036;-81
2021/03/15 14:06:25;;;;;;;0.65;0.60;;;;;;;;;;5032641;28;20036;-82
2021/03/15 14:08:51;;;;;;;1.38;0.82;;;;;;;;;;5037657;28;20039;-83
2021/03/15 14:11:17;;;;;;;1.63;0.80;;;;;;;;;;5036379;28;20112;-82
2021/03/15 14:13:43;;;;;;;1.48;0.88;;;;;;;;;;5034818;28;20168;-85
2021/03/15 14:16:09;;;;;;;2.20;0.80;;;;;;;;;;5042972;28;20025;-85
2021/03/15 14:18:35;;;;;;;2.10;0.87;;;;;;;;;;5037235;28;20048;-81
2021/03/15 14:21:01;;;;;;;1.90;1.17;;;;;;;;;;5040529;28;20036;-80
2021/03/15 14:23:27;;;;;;;1.85;0.98;;;;;;;;;;5036483;28;20029;-79
2021/03/15 14:25:54;;;;;;;1.47;0.80;;;;;;;;;;5040408;28;20040;-78
2021/03/15 14:28:20;;;;;;;2.60;1.20;;;;;;;;;;5037944;28;20029;-80
2021/03/15 14:30:46;;;;;;;2.05;1.23;;;;;;;;;;5036617;28;20148;-79
2021/03/15 14:33:12;;;;;;;2.17;1.17;;;;;;;;;;5037174;28;20044;-78
2021/03/15 14:35:38;;;;;;;1.23;0.82;;;;;;;;;;5040753;28;20057;-80
2021/03/15 14:38:04;;;;;;;0.88;0.73;;;;;;;;;;5037477;28;20037;-78
2021/03/15 14:40:30;;;;;;;1.67;1.10;;;;;;;;;;5036878;28;20029;-80
2021/03/15 14:42:56;;;;;;;2.63;1.60;;;;;;;;;;5038760;28;20523;-82
2021/03/15 14:45:22;;;;;;;2.60;1.10;;;;;;;;;;5034463;28;20044;-80
2021/03/15 14:47:48;;;;;;;2.63;1.40;;;;;;;;;;5044173;28;20052;-80